createdAt,value
2018-06-17T00:00:11.328Z,101119.81
2018-06-17T00:02:43.761Z,101111.78
2018-06-17T00:05:13.751Z,101106.78
2018-06-17T00:07:43.283Z,101100.11
2018-06-17T00:10:12.909Z,101095.48
2018-06-17T00:12:42.403Z,101103.52
2018-06-17T00:15:11.942Z,101108.55
2018-06-17T00:17:42.727Z,101108.52
2018-06-17T00:20:13.227Z,101110.70
2018-06-17T00:22:45.189Z,101108.61
2018-06-17T00:25:15.133Z,101117.47
2018-06-17T00:27:45.727Z,101115.88
2018-06-17T00:30:15.801Z,101115.92
2018-06-17T00:32:46.518Z,101123.48
2018-06-17T00:35:16.896Z,101127.30
2018-06-17T00:37:47.580Z,101127.92
2018-06-17T00:40:17.217Z,101133.84
2018-06-17T00:42:46.831Z,101127.08
2018-06-17T00:45:17.172Z,101123.84
2018-06-17T00:47:47.338Z,101131.43
2018-06-17T00:50:16.875Z,101143.64
2018-06-17T00:52:47.577Z,101137.77
2018-06-17T00:55:17.613Z,101144.94
2018-06-17T00:57:50.759Z,101149.56
2018-06-17T01:00:22.021Z,101140.74
2018-06-17T01:02:51.785Z,101140.75
2018-06-17T01:05:21.489Z,101141.58
2018-06-17T01:07:51.557Z,101135.67
2018-06-17T01:10:20.739Z,101141.97
2018-06-17T01:12:50.048Z,101139.94
2018-06-17T01:15:20.595Z,101154.56
2018-06-17T01:17:50.141Z,101161.25
2018-06-17T01:20:19.971Z,101168.73
2018-06-17T01:22:49.577Z,101165.80
2018-06-17T01:25:19.797Z,101157.92
2018-06-17T01:27:49.417Z,101153.30
2018-06-17T01:30:18.974Z,101159.53
2018-06-17T01:32:48.518Z,101157.89
2018-06-17T01:35:18.442Z,101161.28
2018-06-17T01:37:47.943Z,101162.51
2018-06-17T01:40:17.413Z,101162.09
2018-06-17T01:42:46.992Z,101166.33
2018-06-17T01:45:16.761Z,101161.28
2018-06-17T01:47:46.397Z,101165.55
2018-06-17T01:50:16.839Z,101164.78
2018-06-17T01:52:46.347Z,101166.42
2018-06-17T01:55:15.801Z,101169.44
2018-06-17T01:57:45.348Z,101169.89
2018-06-17T02:00:14.920Z,101156.42
2018-06-17T02:02:44.422Z,101161.49
2018-06-17T02:05:19.242Z,101151.84
2018-06-17T02:07:53.919Z,101141.94
2018-06-17T02:10:29.129Z,101132.80
2018-06-17T02:12:58.742Z,101125.21
2018-06-17T02:15:28.333Z,101126.41
2018-06-17T02:17:57.874Z,101129.05
2018-06-17T02:20:27.401Z,101115.52
2018-06-17T02:22:56.978Z,101123.53
2018-06-17T02:25:26.597Z,101123.11
2018-06-17T02:27:56.119Z,101124.72
2018-06-17T02:30:25.727Z,101127.21
2018-06-17T02:32:55.297Z,101127.14
2018-06-17T02:35:25.310Z,101122.07
2018-06-17T02:37:54.875Z,101121.61
2018-06-17T02:40:24.033Z,101125.04
2018-06-17T02:42:54.025Z,101122.03
2018-06-17T02:45:28.798Z,101121.23
2018-06-17T02:48:03.523Z,101119.13
2018-06-17T02:50:38.242Z,101116.65
2018-06-17T02:53:12.961Z,101118.30
2018-06-17T02:55:42.514Z,101110.28
2018-06-17T02:58:12.100Z,101114.09
2018-06-17T03:00:42.021Z,101112.94
2018-06-17T03:03:11.503Z,101112.48
2018-06-17T03:05:41.513Z,101103.73
2018-06-17T03:08:11.353Z,101105.03
2018-06-17T03:10:40.801Z,101110.91
2018-06-17T03:13:11.195Z,101109.65
2018-06-17T03:15:40.773Z,101111.68
2018-06-17T03:18:10.262Z,101112.55
2018-06-17T03:20:39.898Z,101107.52
2018-06-17T03:23:09.949Z,101112.20
2018-06-17T03:25:45.001Z,101109.72
2018-06-17T03:28:19.954Z,101114.27
2018-06-17T03:30:54.950Z,101114.72
2018-06-17T03:33:29.541Z,101119.33
2018-06-17T03:36:04.278Z,101118.43
2018-06-17T03:38:33.898Z,101114.20
2018-06-17T03:41:03.527Z,101121.30
2018-06-17T03:43:32.674Z,101119.16
2018-06-17T03:46:02.315Z,101111.16
2018-06-17T03:48:32.095Z,101117.00
2018-06-17T03:51:01.901Z,101124.52
2018-06-17T03:53:31.693Z,101121.16
2018-06-17T03:56:01.531Z,101119.02
2018-06-17T03:58:31.034Z,101124.41
2018-06-17T04:01:00.571Z,101123.53
2018-06-17T04:03:30.713Z,101123.98
2018-06-17T04:06:00.235Z,101128.11
2018-06-17T04:08:29.520Z,101129.38
2018-06-17T04:10:59.007Z,101128.95
2018-06-17T04:13:28.857Z,101128.64
2018-06-17T04:15:58.903Z,101134.45
2018-06-17T04:18:28.573Z,101133.30
2018-06-17T04:20:58.016Z,101130.81
2018-06-17T04:23:27.476Z,101130.85
2018-06-17T04:25:58.138Z,101136.73
2018-06-17T04:28:27.335Z,101138.89
2018-06-17T04:30:56.735Z,101141.41
2018-06-17T04:33:26.230Z,101144.87
2018-06-17T04:35:55.405Z,101150.78
2018-06-17T04:38:24.851Z,101153.72
2018-06-17T04:40:54.592Z,101155.33
2018-06-17T04:43:24.130Z,101153.33
2018-06-17T04:45:53.613Z,101150.71
2018-06-17T04:48:23.170Z,101149.94
2018-06-17T04:50:53.075Z,101147.06
2018-06-17T04:53:22.671Z,101145.35
2018-06-17T04:55:52.682Z,101149.94
2018-06-17T04:58:22.304Z,101148.61
2018-06-17T05:00:51.772Z,101154.14
2018-06-17T05:03:21.301Z,101152.00
2018-06-17T05:05:50.912Z,101146.45
2018-06-17T05:08:20.731Z,101151.48
2018-06-17T05:10:50.737Z,101152.64
2018-06-17T05:13:20.287Z,101153.48
2018-06-17T05:15:50.009Z,101148.03
2018-06-17T05:18:19.244Z,101151.45
2018-06-17T05:20:49.562Z,101154.78
2018-06-17T05:23:19.508Z,101146.73
2018-06-17T05:25:48.988Z,101151.77
2018-06-17T05:28:18.506Z,101152.57
2018-06-17T05:30:48.051Z,101147.84
2018-06-17T05:33:18.183Z,101152.84
2018-06-17T05:35:47.476Z,101154.14
2018-06-17T05:38:17.109Z,101154.60
2018-06-17T05:40:46.824Z,101157.09
2018-06-17T05:43:16.454Z,101157.89
2018-06-17T05:45:46.021Z,101162.44
2018-06-17T05:48:15.478Z,101162.70
2018-06-17T05:50:44.991Z,101149.95
2018-06-17T05:53:14.506Z,101157.69
2018-06-17T05:55:44.082Z,101164.83
2018-06-17T05:58:14.253Z,101159.73
2018-06-17T06:00:43.727Z,101157.05
2018-06-17T06:03:13.177Z,101159.19
2018-06-17T06:05:42.400Z,101163.50
2018-06-17T06:08:12.007Z,101166.33
2018-06-17T06:10:41.550Z,101169.77
2018-06-17T06:13:11.015Z,101165.61
2018-06-17T06:15:40.861Z,101177.22
2018-06-17T06:18:10.401Z,101171.64
2018-06-17T06:20:39.920Z,101167.34
2018-06-17T06:23:09.403Z,101173.56
2018-06-17T06:25:38.864Z,101177.89
2018-06-17T06:28:08.817Z,101181.17
2018-06-17T06:30:38.978Z,101177.18
2018-06-17T06:33:08.236Z,101187.23
2018-06-17T06:35:37.778Z,101178.41
2018-06-17T06:38:07.669Z,101182.19
2018-06-17T06:40:37.387Z,101185.27
2018-06-17T06:43:07.638Z,101186.16
2018-06-17T06:45:37.539Z,101189.85
2018-06-17T06:48:07.023Z,101188.07
2018-06-17T06:50:37.165Z,101187.05
2018-06-17T06:53:06.922Z,101189.42
2018-06-17T06:55:36.891Z,101185.22
2018-06-17T06:58:07.500Z,101189.05
2018-06-17T07:00:37.011Z,101183.36
2018-06-17T07:03:23.531Z,101186.72
2018-06-17T07:06:09.977Z,101185.91
2018-06-17T07:08:56.288Z,101188.53
2018-06-17T07:11:25.845Z,101190.27
2018-06-17T07:13:55.311Z,101195.22
2018-06-17T07:16:41.748Z,101198.49
2018-06-17T07:19:11.344Z,101192.70
2018-06-17T07:21:40.836Z,101191.77
2018-06-17T07:24:10.466Z,101184.04
2018-06-17T07:26:58.108Z,101183.95
2018-06-17T07:29:46.130Z,101182.09
2018-06-17T07:32:15.568Z,101194.23
2018-06-17T07:34:44.822Z,101192.22
2018-06-17T07:37:15.094Z,101191.52
2018-06-17T07:40:50.181Z,101195.21
2018-06-17T07:43:20.037Z,101190.75
2018-06-17T07:45:49.509Z,101191.27
2018-06-17T07:49:40.100Z,101189.23
2018-06-17T07:52:27.863Z,101185.90
2018-06-17T07:54:58.737Z,101196.01
2018-06-17T07:57:29.590Z,101196.37
2018-06-17T07:59:58.900Z,101197.22
2018-06-17T08:02:30.808Z,101192.33
2018-06-17T08:05:00.364Z,101196.28
2018-06-17T08:07:29.538Z,101186.53
2018-06-17T08:09:59.350Z,101184.37
2018-06-17T08:12:29.213Z,101188.48
2018-06-17T08:14:59.412Z,101189.75
2018-06-17T08:17:29.069Z,101190.27
2018-06-17T08:19:58.611Z,101186.18
2018-06-17T08:22:29.047Z,101181.89
2018-06-17T08:24:58.294Z,101177.16
2018-06-17T08:27:27.980Z,101184.67
2018-06-17T08:29:57.490Z,101188.80
2018-06-17T08:32:27.922Z,101184.55
2018-06-17T08:34:57.590Z,101190.92
2018-06-17T08:37:27.059Z,101191.71
2018-06-17T08:39:56.535Z,101198.64
2018-06-17T08:42:26.338Z,101199.56
2018-06-17T08:44:56.133Z,101200.70
2018-06-17T08:47:25.657Z,101199.71
2018-06-17T08:49:54.853Z,101193.94
2018-06-17T08:52:24.308Z,101195.53
2018-06-17T08:54:54.437Z,101205.88
2018-06-17T08:57:24.883Z,101207.67
2018-06-17T08:59:54.965Z,101204.86
2018-06-17T09:02:24.876Z,101206.55
2018-06-17T09:04:54.928Z,101210.34
2018-06-17T09:07:24.533Z,101210.78
2018-06-17T09:09:54.973Z,101210.49
2018-06-17T09:12:24.653Z,101207.72
2018-06-17T09:14:54.585Z,101215.95
2018-06-17T09:17:24.121Z,101215.34
2018-06-17T09:19:53.590Z,101217.44
2018-06-17T09:22:23.730Z,101219.69
2018-06-17T09:24:53.239Z,101219.08
2018-06-17T09:27:23.048Z,101220.41
2018-06-17T09:29:52.557Z,101225.04
2018-06-17T09:32:22.000Z,101217.25
2018-06-17T09:34:51.749Z,101223.58
2018-06-17T09:37:21.385Z,101225.27
2018-06-17T09:39:50.913Z,101223.78
2018-06-17T09:42:20.109Z,101224.27
2018-06-17T09:44:49.702Z,101227.42
2018-06-17T09:47:19.192Z,101223.58
2018-06-17T09:49:48.696Z,101217.58
2018-06-17T09:52:18.615Z,101216.81
2018-06-17T09:54:48.149Z,101209.05
2018-06-17T09:57:18.570Z,101216.88
2018-06-17T09:59:47.984Z,101220.95
2018-06-17T10:02:17.421Z,101209.70
2018-06-17T10:04:46.966Z,101224.69
2018-06-17T10:07:16.570Z,101219.49
2018-06-17T10:11:12.940Z,101225.82
2018-06-17T10:13:44.550Z,101227.88
2018-06-17T10:16:15.073Z,101226.84
2018-06-17T10:18:44.922Z,101218.75
2018-06-17T10:21:14.569Z,101226.14
2018-06-17T10:23:44.070Z,101233.95
2018-06-17T10:26:13.568Z,101219.45
2018-06-17T10:28:43.136Z,101219.45
2018-06-17T10:31:12.768Z,101216.92
2018-06-17T10:33:42.488Z,101214.46
2018-06-17T10:36:12.794Z,101212.34
2018-06-17T10:38:42.309Z,101199.11
2018-06-17T10:41:11.806Z,101209.31
2018-06-17T10:43:41.468Z,101209.13
2018-06-17T10:47:40.401Z,101216.41
2018-06-17T10:50:09.983Z,101216.98
2018-06-17T10:52:40.381Z,101209.25
2018-06-17T10:55:10.212Z,101209.63
2018-06-17T10:57:39.624Z,101212.87
2018-06-17T11:00:10.401Z,101218.16
2018-06-17T11:02:40.692Z,101223.86
2018-06-17T11:05:10.775Z,101220.02
2018-06-17T11:07:41.224Z,101217.92
2018-06-17T11:10:10.400Z,101217.19
2018-06-17T11:12:40.428Z,101209.87
2018-06-17T11:15:09.920Z,101216.47
2018-06-17T11:17:39.423Z,101216.91
2018-06-17T11:20:09.054Z,101222.47
2018-06-17T11:22:38.620Z,101219.83
2018-06-17T11:25:08.147Z,101225.91
2018-06-17T11:27:37.662Z,101218.02
2018-06-17T11:30:07.379Z,101217.84
2018-06-17T11:32:36.949Z,101214.11
2018-06-17T11:35:06.519Z,101222.70
2018-06-17T11:37:36.194Z,101219.33
2018-06-17T11:40:05.817Z,101216.55
2018-06-17T11:42:35.770Z,101223.17
2018-06-17T11:45:06.029Z,101222.41
2018-06-17T11:47:35.620Z,101227.45
2018-06-17T11:50:05.161Z,101221.64
2018-06-17T11:52:34.640Z,101219.85
2018-06-17T11:55:04.296Z,101213.20
2018-06-17T11:57:33.951Z,101224.88
2018-06-17T12:00:03.562Z,101226.17
2018-06-17T12:02:33.080Z,101224.02
2018-06-17T12:05:02.553Z,101230.53
2018-06-17T12:07:32.129Z,101224.72
2018-06-17T12:10:01.602Z,101231.80
2018-06-17T12:12:31.103Z,101234.42
2018-06-17T12:15:00.608Z,101235.41
2018-06-17T12:17:30.443Z,101231.27
2018-06-17T12:20:00.035Z,101224.06
2018-06-17T12:22:29.949Z,101237.44
2018-06-17T12:24:59.466Z,101234.80
2018-06-17T12:27:29.301Z,101233.75
2018-06-17T12:29:58.793Z,101225.09
2018-06-17T12:32:28.277Z,101230.95
2018-06-17T12:34:58.035Z,101230.81
2018-06-17T12:37:27.610Z,101242.91
2018-06-17T12:39:57.128Z,101235.73
2018-06-17T12:42:26.704Z,101232.34
2018-06-17T12:44:56.311Z,101231.44
2018-06-17T12:47:25.778Z,101233.06
2018-06-17T12:49:55.657Z,101246.55
2018-06-17T12:52:25.193Z,101239.86
2018-06-17T12:54:54.616Z,101243.53
2018-06-17T12:57:25.009Z,101246.96
2018-06-17T12:59:55.110Z,101254.39
2018-06-17T13:02:25.246Z,101251.61
2018-06-17T13:04:55.001Z,101251.58
2018-06-17T13:07:24.370Z,101251.29
2018-06-17T13:09:54.192Z,101254.91
2018-06-17T13:12:28.591Z,101261.32
2018-06-17T13:15:00.301Z,101273.42
2018-06-17T13:17:29.978Z,101265.17
2018-06-17T13:20:00.108Z,101267.53
2018-06-17T13:22:30.200Z,101271.16
2018-06-17T13:24:59.697Z,101280.25
2018-06-17T13:27:29.577Z,101298.41
2018-06-17T13:29:59.095Z,101300.06
2018-06-17T13:32:28.753Z,101308.84
2018-06-17T13:34:58.253Z,101300.88
2018-06-17T13:37:27.816Z,101305.47
2018-06-17T13:39:57.811Z,101311.84
2018-06-17T13:42:27.120Z,101312.36
2018-06-17T13:44:56.401Z,101310.61
2018-06-17T13:47:25.785Z,101309.53
2018-06-17T13:49:55.281Z,101320.29
2018-06-17T13:52:25.879Z,101319.05
2018-06-17T13:54:56.590Z,101319.28
2018-06-17T13:57:26.011Z,101323.62
2018-06-17T13:59:55.549Z,101317.71
2018-06-17T14:02:25.054Z,101325.17
2018-06-17T14:04:54.518Z,101336.83
2018-06-17T14:07:23.785Z,101334.20
2018-06-17T14:09:53.612Z,101339.33
2018-06-17T14:12:23.073Z,101342.53
2018-06-17T14:14:53.392Z,101345.59
2018-06-17T14:17:23.142Z,101350.03
2018-06-17T14:19:52.633Z,101358.72
2018-06-17T14:22:22.162Z,101363.48
2018-06-17T14:24:51.813Z,101371.80
2018-06-17T14:27:21.917Z,101364.16
2018-06-17T14:29:51.213Z,101370.05
2018-06-17T14:32:20.417Z,101370.73
2018-06-17T14:34:49.737Z,101366.95
2018-06-17T14:37:19.339Z,101375.86
2018-06-17T14:39:48.660Z,101371.30
2018-06-17T14:42:23.425Z,101379.74
2018-06-17T14:44:58.240Z,101382.60
2018-06-17T14:47:33.097Z,101374.58
2018-06-17T14:50:07.862Z,101380.61
2018-06-17T14:52:43.155Z,101375.72
2018-06-17T14:55:13.289Z,101375.08
2018-06-17T14:57:43.228Z,101377.80
2018-06-17T15:00:12.906Z,101371.17
2018-06-17T15:02:42.772Z,101375.16
2018-06-17T15:05:12.341Z,101374.12
2018-06-17T15:07:41.922Z,101381.80
2018-06-17T15:10:11.450Z,101386.61
2018-06-17T15:12:40.962Z,101392.67
2018-06-17T15:15:10.524Z,101396.59
2018-06-17T15:17:40.999Z,101398.70
2018-06-17T15:20:10.747Z,101402.75
2018-06-17T15:22:40.336Z,101411.23
2018-06-17T15:25:09.599Z,101408.69
2018-06-17T15:27:39.114Z,101414.76
2018-06-17T15:30:09.768Z,101407.03
2018-06-17T15:32:44.647Z,101407.03
2018-06-17T15:35:19.987Z,101413.42
2018-06-17T15:37:54.689Z,101407.05
2018-06-17T15:40:29.172Z,101411.65
2018-06-17T15:42:58.690Z,101418.66
2018-06-17T15:45:28.254Z,101411.91
2018-06-17T15:47:57.749Z,101413.05
2018-06-17T15:50:27.311Z,101412.08
2018-06-17T15:52:56.928Z,101410.45
2018-06-17T15:55:27.031Z,101404.19
2018-06-17T15:57:57.148Z,101414.75
2018-06-17T16:00:26.760Z,101411.56
2018-06-17T16:02:56.543Z,101413.30
2018-06-17T16:05:26.562Z,101415.69
2018-06-17T16:07:56.187Z,101412.33
2018-06-17T16:10:26.189Z,101421.55
2018-06-17T16:13:00.938Z,101418.93
2018-06-17T16:15:35.899Z,101427.14
2018-06-17T16:18:10.680Z,101423.67
2018-06-17T16:20:45.340Z,101429.03
2018-06-17T16:23:15.594Z,101427.92
2018-06-17T16:25:45.103Z,101422.81
2018-06-17T16:28:15.644Z,101430.73
2018-06-17T16:30:46.860Z,101425.34
2018-06-17T16:33:16.765Z,101425.39
2018-06-17T16:35:47.018Z,101422.03
2018-06-17T16:38:16.328Z,101422.81
2018-06-17T16:40:46.532Z,101424.98
2018-06-17T16:43:16.135Z,101428.44
2018-06-17T16:45:46.433Z,101433.03
2018-06-17T16:48:15.963Z,101429.38
2018-06-17T16:50:51.010Z,101433.87
2018-06-17T16:53:25.822Z,101442.81
2018-06-17T16:56:00.412Z,101443.33
2018-06-17T16:58:35.035Z,101451.89
2018-06-17T17:01:04.600Z,101443.84
2018-06-17T17:03:35.072Z,101443.94
2018-06-17T17:06:04.645Z,101439.20
2018-06-17T17:08:34.099Z,101444.17
2018-06-17T17:11:04.171Z,101442.20
2018-06-17T17:13:33.470Z,101446.14
2018-06-17T17:16:02.846Z,101447.21
2018-06-17T17:18:32.349Z,101448.72
2018-06-17T17:21:01.824Z,101445.06
2018-06-17T17:23:32.005Z,101450.08
2018-06-17T17:26:01.503Z,101454.75
2018-06-17T17:28:30.928Z,101461.07
2018-06-17T17:31:00.124Z,101466.12
2018-06-17T17:33:34.842Z,101461.81
2018-06-17T17:36:09.643Z,101463.18
2018-06-17T17:38:45.435Z,101462.91
2018-06-17T17:41:14.927Z,101461.64
2018-06-17T17:43:44.628Z,101459.23
2018-06-17T17:46:19.220Z,101470.89
2018-06-17T17:48:48.747Z,101469.87
2018-06-17T17:51:18.347Z,101474.00
2018-06-17T17:53:47.988Z,101481.33
2018-06-17T17:56:17.645Z,101477.55
2018-06-17T17:58:47.211Z,101474.69
2018-06-17T18:01:16.642Z,101473.04
2018-06-17T18:03:46.201Z,101473.42
2018-06-17T18:06:15.905Z,101478.48
2018-06-17T18:08:45.387Z,101480.27
2018-06-17T18:11:15.386Z,101483.53
2018-06-17T18:13:45.776Z,101485.22
2018-06-17T18:16:15.344Z,101474.69
2018-06-17T18:18:44.907Z,101475.49
2018-06-17T18:21:14.530Z,101478.52
2018-06-17T18:23:44.120Z,101468.08
2018-06-17T18:26:18.835Z,101466.73
2018-06-17T18:28:53.554Z,101469.75
2018-06-17T18:31:23.034Z,101463.70
2018-06-17T18:35:01.824Z,101465.93
2018-06-17T18:37:31.103Z,101478.25
2018-06-17T18:40:00.575Z,101480.70
2018-06-17T18:42:30.030Z,101484.56
2018-06-17T18:44:59.227Z,101488.89
2018-06-17T18:47:29.312Z,101489.38
2018-06-17T18:49:59.561Z,101497.41
2018-06-17T18:52:29.133Z,101497.83
2018-06-17T18:54:58.849Z,101497.77
2018-06-17T18:57:29.014Z,101495.80
2018-06-17T18:59:58.766Z,101505.19
2018-06-17T19:02:28.424Z,101512.27
2018-06-17T19:04:57.958Z,101510.55
2018-06-17T19:07:27.750Z,101510.23
2018-06-17T19:10:02.726Z,101511.11
2018-06-17T19:12:37.699Z,101515.28
2018-06-17T19:15:13.721Z,101520.42
2018-06-17T19:17:48.462Z,101522.55
2018-06-17T19:20:18.040Z,101526.76
2018-06-17T19:22:47.628Z,101524.29
2018-06-17T19:25:17.197Z,101529.67
2018-06-17T19:27:46.785Z,101527.66
2018-06-17T19:30:16.336Z,101523.51
2018-06-17T19:32:45.930Z,101530.27
2018-06-17T19:35:15.436Z,101531.55
2018-06-17T19:37:44.999Z,101532.39
2018-06-17T19:40:14.561Z,101544.24
2018-06-17T19:42:44.067Z,101533.34
2018-06-17T19:45:13.782Z,101535.02
2018-06-17T19:47:43.357Z,101527.02
2018-06-17T19:50:17.979Z,101535.41
2018-06-17T19:52:52.652Z,101533.78
2018-06-17T19:55:27.419Z,101531.76
2018-06-17T19:58:02.075Z,101530.12
2018-06-17T20:00:32.050Z,101528.42
2018-06-17T20:03:02.287Z,101530.94
2018-06-17T20:05:31.847Z,101532.25
2018-06-17T20:08:01.366Z,101526.39
2018-06-17T20:10:30.819Z,101528.48
2018-06-17T20:13:00.945Z,101527.67
2018-06-17T20:15:31.391Z,101524.34
2018-06-17T20:18:00.926Z,101525.64
2018-06-17T20:20:30.967Z,101527.27
2018-06-17T20:23:00.349Z,101525.20
2018-06-17T20:25:30.280Z,101526.92
2018-06-17T20:28:00.083Z,101526.09
2018-06-17T20:30:30.290Z,101517.30
2018-06-17T20:33:05.212Z,101523.62
2018-06-17T20:35:39.867Z,101530.34
2018-06-17T20:38:14.558Z,101531.64
2018-06-17T20:40:49.331Z,101538.79
2018-06-17T20:43:23.808Z,101544.66
2018-06-17T20:45:53.660Z,101537.54
2018-06-17T20:48:23.128Z,101544.31
2018-06-17T20:50:52.586Z,101544.77
2018-06-17T20:53:22.078Z,101545.20
2018-06-17T20:55:52.010Z,101543.13
2018-06-17T20:58:22.161Z,101558.63
2018-06-17T21:00:51.714Z,101556.17
2018-06-17T21:03:21.201Z,101563.67
2018-06-17T21:05:50.827Z,101559.52
2018-06-17T21:08:21.151Z,101557.42
2018-06-17T21:10:50.647Z,101564.99
2018-06-17T21:13:21.219Z,101564.58
2018-06-17T21:15:50.496Z,101559.63
2018-06-17T21:18:25.828Z,101559.63
2018-06-17T21:21:00.900Z,101565.52
2018-06-17T21:23:35.360Z,101567.21
2018-06-17T21:26:10.035Z,101568.48
2018-06-17T21:28:39.210Z,101566.02
2018-06-17T21:31:08.700Z,101572.30
2018-06-17T21:33:38.702Z,101568.55
2018-06-17T21:36:08.248Z,101569.81
2018-06-17T21:38:37.789Z,101570.25
2018-06-17T21:41:07.283Z,101568.16
2018-06-17T21:43:37.254Z,101581.53
2018-06-17T21:46:07.617Z,101580.66
2018-06-17T21:48:37.145Z,101578.58
2018-06-17T21:51:06.919Z,101581.91
2018-06-17T21:53:36.741Z,101579.41
2018-06-17T21:56:07.012Z,101581.06
2018-06-17T21:58:41.930Z,101586.07
2018-06-17T22:01:11.497Z,101585.22
2018-06-17T22:03:41.298Z,101589.02
2018-06-17T22:06:10.886Z,101587.33
2018-06-17T22:08:45.486Z,101588.60
2018-06-17T22:11:19.962Z,101593.63
2018-06-17T22:13:55.003Z,101591.55
2018-06-17T22:16:30.297Z,101592.83
2018-06-17T22:19:00.287Z,101602.02
2018-06-17T22:21:29.861Z,101597.41
2018-06-17T22:23:59.844Z,101594.48
2018-06-17T22:26:29.396Z,101604.09
2018-06-17T22:28:58.982Z,101595.25
2018-06-17T22:31:28.454Z,101597.80
2018-06-17T22:33:57.738Z,101593.19
2018-06-17T22:36:26.926Z,101594.91
2018-06-17T22:38:56.374Z,101604.13
2018-06-17T22:41:26.033Z,101609.18
2018-06-17T22:43:55.653Z,101610.90
2018-06-17T22:46:25.238Z,101605.88
2018-06-17T22:48:54.705Z,101608.81
2018-06-17T22:51:24.568Z,101612.19
2018-06-17T22:54:11.246Z,101618.45
2018-06-17T22:56:46.036Z,101629.79
2018-06-17T22:59:20.845Z,101621.77
2018-06-17T23:01:55.695Z,101618.43
2018-06-17T23:04:31.041Z,101624.28
2018-06-17T23:07:05.566Z,101627.18
2018-06-17T23:09:37.084Z,101633.05
2018-06-17T23:12:07.010Z,101630.91
2018-06-17T23:14:36.826Z,101630.05
2018-06-17T23:17:06.458Z,101632.98
2018-06-17T23:19:35.588Z,101635.09
2018-06-17T23:22:05.215Z,101631.70
2018-06-17T23:24:34.710Z,101634.23
2018-06-17T23:27:04.281Z,101638.82
2018-06-17T23:29:34.232Z,101641.33
2018-06-17T23:32:03.860Z,101644.28
2018-06-17T23:34:33.410Z,101639.67
2018-06-17T23:37:02.635Z,101641.78
2018-06-17T23:39:32.859Z,101644.67
2018-06-17T23:42:02.582Z,101652.20
2018-06-17T23:44:32.127Z,101647.96
2018-06-17T23:47:07.606Z,101652.56
2018-06-17T23:49:43.022Z,101658.01
2018-06-17T23:52:17.731Z,101653.42
2018-06-17T23:54:52.642Z,101654.67
2018-06-17T23:57:22.693Z,101651.75
2018-06-17T23:59:52.178Z,101655.53
